createdAt,value
2022-08-12T00:00:19.000Z,59.58
2022-08-12T00:01:19.000Z,59.99
2022-08-12T00:02:19.000Z,58.98
2022-08-12T00:03:19.000Z,60.60
2022-08-12T00:04:19.000Z,59.78
2022-08-12T00:05:19.000Z,60.60
2022-08-12T00:06:19.000Z,61.30
2022-08-12T00:07:19.000Z,60.52
2022-08-12T00:08:19.000Z,61.23
2022-08-12T00:09:19.000Z,61.23
2022-08-12T00:10:19.000Z,61.53
2022-08-12T00:11:19.000Z,60.22
2022-08-12T00:12:19.000Z,62.54
2022-08-12T00:13:19.000Z,60.42
2022-08-12T00:14:19.000Z,60.32
2022-08-12T00:15:19.000Z,60.32
2022-08-12T00:16:19.000Z,61.03
2022-08-12T00:17:19.000Z,60.72
2022-08-12T00:18:19.000Z,60.42
2022-08-12T00:19:19.000Z,61.03
2022-08-12T00:20:19.000Z,61.25
2022-08-12T00:21:19.000Z,61.36
2022-08-12T00:22:19.000Z,62.47
2022-08-12T00:22:19.000Z,62.47
2022-08-12T00:22:19.000Z,62.47
2022-08-12T00:23:19.000Z,61.46
2022-08-12T00:23:19.000Z,61.46
2022-08-12T00:23:19.000Z,61.46
2022-08-12T00:24:19.000Z,61.25
2022-08-12T00:24:19.000Z,61.25
2022-08-12T00:24:19.000Z,61.25
2022-08-12T00:25:19.000Z,61.25
2022-08-12T00:25:19.000Z,61.25
2022-08-12T00:25:19.000Z,61.25
2022-08-12T00:26:19.000Z,61.87
2022-08-12T00:26:19.000Z,61.87
2022-08-12T00:26:19.000Z,61.87
2022-08-12T00:27:19.000Z,61.96
2022-08-12T00:27:19.000Z,61.96
2022-08-12T00:28:19.000Z,61.96
2022-08-12T00:28:19.000Z,61.96
2022-08-12T00:29:19.000Z,62.07
2022-08-12T00:29:19.000Z,62.07
2022-08-12T00:30:19.000Z,61.56
2022-08-12T00:30:19.000Z,61.56
2022-08-12T00:31:19.000Z,61.87
2022-08-12T00:31:19.000Z,61.87
2022-08-12T00:32:19.000Z,61.87
2022-08-12T00:33:19.000Z,61.66
2022-08-12T00:34:19.000Z,62.87
2022-08-12T00:35:19.000Z,61.76
2022-08-12T00:36:19.000Z,62.19
2022-08-12T00:37:19.000Z,62.10
2022-08-12T00:38:19.000Z,62.10
2022-08-12T00:39:19.000Z,62.19
2022-08-12T00:40:19.000Z,61.69
2022-08-12T00:41:19.000Z,61.79
2022-08-12T00:42:19.000Z,61.39
2022-08-12T00:43:19.000Z,61.29
2022-08-12T00:44:19.000Z,60.96
2022-08-12T00:45:19.000Z,61.25
2022-08-12T00:46:19.000Z,62.37
2022-08-12T00:47:19.000Z,62.27
2022-08-12T00:48:19.000Z,61.66
2022-08-12T00:49:19.000Z,62.07
2022-08-12T00:50:19.000Z,61.76
2022-08-12T00:51:19.000Z,61.36
2022-08-12T00:52:19.000Z,61.36
2022-08-12T00:53:19.000Z,61.36
2022-08-12T00:54:19.000Z,61.46
2022-08-12T00:55:19.000Z,61.25
2022-08-12T00:56:19.000Z,61.76
2022-08-12T00:57:19.000Z,61.90
2022-08-12T00:58:19.000Z,61.56
2022-08-12T00:59:19.000Z,61.66
2022-08-12T01:00:19.000Z,62.30
2022-08-12T01:01:19.000Z,61.79
2022-08-12T01:02:18.000Z,61.49
2022-08-12T01:03:18.000Z,61.39
2022-08-12T01:04:18.000Z,61.29
2022-08-12T01:05:18.000Z,61.29
2022-08-12T01:06:18.000Z,61.79
2022-08-12T01:07:18.000Z,61.90
2022-08-12T01:08:18.000Z,62.19
2022-08-12T01:09:18.000Z,62.10
2022-08-12T01:10:18.000Z,63.10
2022-08-12T01:11:18.000Z,62.19
2022-08-12T01:12:18.000Z,62.40
2022-08-12T01:13:18.000Z,62.90
2022-08-12T01:14:18.000Z,62.40
2022-08-12T01:15:18.000Z,63.31
2022-08-12T01:16:18.000Z,63.81
2022-08-12T01:17:18.000Z,63.31
2022-08-12T01:18:18.000Z,63.01
2022-08-12T01:19:18.000Z,63.81
2022-08-12T01:20:18.000Z,63.41
2022-08-12T01:21:18.000Z,63.31
2022-08-12T01:22:18.000Z,63.31
2022-08-12T01:23:18.000Z,63.10
2022-08-12T01:24:18.000Z,62.90
2022-08-12T01:25:18.000Z,63.21
2022-08-12T01:26:18.000Z,63.41
2022-08-12T01:27:18.000Z,63.81
2022-08-12T01:28:18.000Z,63.21
2022-08-12T01:29:18.000Z,63.41
2022-08-12T01:30:18.000Z,63.61
2022-08-12T01:31:18.000Z,63.71
2022-08-12T01:32:18.000Z,63.24
2022-08-12T01:33:18.000Z,63.84
2022-08-12T01:34:18.000Z,63.44
2022-08-12T01:35:18.000Z,64.04
2022-08-12T01:36:18.000Z,63.75
2022-08-12T01:37:18.000Z,63.44
2022-08-12T01:38:18.000Z,63.84
2022-08-12T01:39:18.000Z,64.07
2022-08-12T01:40:18.000Z,64.89
2022-08-12T01:41:18.000Z,64.48
2022-08-12T01:42:18.000Z,64.38
2022-08-12T01:43:18.000Z,64.99
2022-08-12T01:44:18.000Z,64.89
2022-08-12T01:45:18.000Z,64.99
2022-08-12T01:46:18.000Z,65.09
2022-08-12T01:47:18.000Z,64.79
2022-08-12T01:48:18.000Z,65.80
2022-08-12T01:49:18.000Z,65.90
2022-08-12T01:50:18.000Z,65.90
2022-08-12T01:51:18.000Z,65.90
2022-08-12T01:52:18.000Z,66.13
2022-08-12T01:52:18.000Z,66.13
2022-08-12T01:53:18.000Z,65.73
2022-08-12T01:53:18.000Z,65.73
2022-08-12T01:54:18.000Z,66.44
2022-08-12T01:54:18.000Z,66.44
2022-08-12T01:55:18.000Z,65.93
2022-08-12T01:55:18.000Z,65.93
2022-08-12T01:56:18.000Z,66.24
2022-08-12T01:56:18.000Z,66.24
2022-08-12T01:57:18.000Z,66.64
2022-08-12T01:58:18.000Z,66.84
2022-08-12T01:59:18.000Z,66.24
2022-08-12T02:00:18.000Z,65.93
2022-08-12T02:01:18.000Z,66.03
2022-08-12T02:02:18.000Z,65.93
2022-08-12T02:03:18.000Z,66.33
2022-08-12T02:04:18.000Z,65.73
2022-08-12T02:05:18.000Z,66.13
2022-08-12T02:06:18.000Z,65.93
2022-08-12T02:07:18.000Z,65.93
2022-08-12T02:07:18.000Z,65.93
2022-08-12T02:07:18.000Z,65.93
2022-08-12T02:08:18.000Z,65.62
2022-08-12T02:08:18.000Z,65.62
2022-08-12T02:08:18.000Z,65.62
2022-08-12T02:09:18.000Z,65.22
2022-08-12T02:09:18.000Z,65.22
2022-08-12T02:09:18.000Z,65.22
2022-08-12T02:10:18.000Z,65.05
2022-08-12T02:10:18.000Z,65.05
2022-08-12T02:10:18.000Z,65.05
2022-08-12T02:11:18.000Z,65.25
2022-08-12T02:11:18.000Z,65.25
2022-08-12T02:11:18.000Z,65.25
2022-08-12T02:12:18.000Z,65.66
2022-08-12T02:12:18.000Z,65.66
2022-08-12T02:13:18.000Z,65.36
2022-08-12T02:13:18.000Z,65.36
2022-08-12T02:14:17.000Z,65.25
2022-08-12T02:14:17.000Z,65.25
2022-08-12T02:15:17.000Z,65.96
2022-08-12T02:15:17.000Z,65.96
2022-08-12T02:16:17.000Z,66.27
2022-08-12T02:16:17.000Z,66.27
2022-08-12T02:17:17.000Z,67.08
2022-08-12T02:18:17.000Z,67.68
2022-08-12T02:19:17.000Z,67.58
2022-08-12T02:20:17.000Z,66.67
2022-08-12T02:21:17.000Z,66.88
2022-08-12T02:22:17.000Z,66.37
2022-08-12T02:23:17.000Z,66.16
2022-08-12T02:24:17.000Z,66.47
2022-08-12T02:25:17.000Z,66.16
2022-08-12T02:26:17.000Z,66.77
2022-08-12T02:27:17.000Z,66.67
2022-08-12T02:28:17.000Z,66.67
2022-08-12T02:29:17.000Z,66.97
2022-08-12T02:30:17.000Z,66.57
2022-08-12T02:31:17.000Z,66.37
2022-08-12T02:32:17.000Z,66.27
2022-08-12T02:33:17.000Z,66.09
2022-08-12T02:34:17.000Z,66.40
2022-08-12T02:35:17.000Z,66.30
2022-08-12T02:36:17.000Z,66.30
2022-08-12T02:37:17.000Z,67.11
2022-08-12T02:38:17.000Z,67.41
2022-08-12T02:39:17.000Z,67.51
2022-08-12T02:40:17.000Z,68.32
2022-08-12T02:41:17.000Z,67.72
2022-08-12T02:42:17.000Z,68.43
2022-08-12T02:42:17.000Z,68.43
2022-08-12T02:43:17.000Z,67.41
2022-08-12T02:43:17.000Z,67.41
2022-08-12T02:44:17.000Z,67.11
2022-08-12T02:44:17.000Z,67.11
2022-08-12T02:45:17.000Z,66.80
2022-08-12T02:45:17.000Z,66.80
2022-08-12T02:46:17.000Z,67.00
2022-08-12T02:46:17.000Z,67.00
2022-08-12T02:47:17.000Z,67.72
2022-08-12T02:48:17.000Z,67.72
2022-08-12T02:49:17.000Z,67.41
2022-08-12T02:50:17.000Z,67.00
2022-08-12T02:51:17.000Z,67.00
2022-08-12T02:52:17.000Z,67.55
2022-08-12T02:53:17.000Z,67.31
2022-08-12T02:54:17.000Z,66.83
2022-08-12T02:55:17.000Z,67.65
2022-08-12T02:56:17.000Z,67.95
2022-08-12T02:57:17.000Z,68.35
2022-08-12T02:58:17.000Z,69.27
2022-08-12T02:59:17.000Z,68.66
2022-08-12T03:00:17.000Z,68.05
2022-08-12T03:01:17.000Z,68.15
2022-08-12T03:02:17.000Z,67.75
2022-08-12T03:02:17.000Z,67.75
2022-08-12T03:02:17.000Z,67.75
2022-08-12T03:03:17.000Z,68.96
2022-08-12T03:03:17.000Z,68.96
2022-08-12T03:03:17.000Z,68.96
2022-08-12T03:04:17.000Z,68.15
2022-08-12T03:04:17.000Z,68.15
2022-08-12T03:04:17.000Z,68.15
2022-08-12T03:05:17.000Z,67.78
2022-08-12T03:05:17.000Z,67.78
2022-08-12T03:05:17.000Z,67.78
2022-08-12T03:06:17.000Z,67.95
2022-08-12T03:06:17.000Z,67.95
2022-08-12T03:06:17.000Z,67.95
2022-08-12T03:07:17.000Z,67.98
2022-08-12T03:07:17.000Z,67.98
2022-08-12T03:08:17.000Z,67.65
2022-08-12T03:08:17.000Z,67.65
2022-08-12T03:09:17.000Z,68.70
2022-08-12T03:09:17.000Z,68.70
2022-08-12T03:10:17.000Z,67.98
2022-08-12T03:10:17.000Z,67.98
2022-08-12T03:11:17.000Z,67.68
2022-08-12T03:11:17.000Z,67.68
2022-08-12T03:12:17.000Z,67.88
2022-08-12T03:13:17.000Z,69.71
2022-08-12T03:14:17.000Z,68.90
2022-08-12T03:15:17.000Z,68.90
2022-08-12T03:16:17.000Z,68.90
2022-08-12T03:17:17.000Z,68.90
2022-08-12T03:18:17.000Z,68.79
2022-08-12T03:19:17.000Z,70.01
2022-08-12T03:20:17.000Z,70.42
2022-08-12T03:21:17.000Z,69.60
2022-08-12T03:22:17.000Z,69.71
2022-08-12T03:23:17.000Z,69.71
2022-08-12T03:24:17.000Z,69.81
2022-08-12T03:25:17.000Z,69.71
2022-08-12T03:26:16.000Z,70.32
2022-08-12T03:27:16.000Z,70.35
2022-08-12T03:27:16.000Z,70.35
2022-08-12T03:28:16.000Z,69.81
2022-08-12T03:28:16.000Z,69.81
2022-08-12T03:29:16.000Z,70.62
2022-08-12T03:29:16.000Z,70.62
2022-08-12T03:30:16.000Z,70.55
2022-08-12T03:30:16.000Z,70.55
2022-08-12T03:31:16.000Z,69.60
2022-08-12T03:31:16.000Z,69.60
2022-08-12T03:32:16.000Z,69.95
2022-08-12T03:33:16.000Z,70.15
2022-08-12T03:34:16.000Z,69.95
2022-08-12T03:35:16.000Z,70.04
2022-08-12T03:36:16.000Z,69.95
2022-08-12T03:37:16.000Z,70.25
2022-08-12T03:38:16.000Z,70.76
2022-08-12T03:39:16.000Z,70.35
2022-08-12T03:40:16.000Z,70.04
2022-08-12T03:41:16.000Z,69.43
2022-08-12T03:42:16.000Z,70.35
2022-08-12T03:43:16.000Z,70.76
2022-08-12T03:44:16.000Z,70.45
2022-08-12T03:45:16.000Z,70.04
2022-08-12T03:46:16.000Z,70.25
2022-08-12T03:47:16.000Z,70.86
2022-08-12T03:48:16.000Z,71.06
2022-08-12T03:49:16.000Z,71.09
2022-08-12T03:50:16.000Z,71.09
2022-08-12T03:51:16.000Z,70.89
2022-08-12T03:52:16.000Z,70.79
2022-08-12T03:53:16.000Z,70.59
2022-08-12T03:54:16.000Z,70.38
2022-08-12T03:55:16.000Z,70.89
2022-08-12T03:56:16.000Z,70.68
2022-08-12T03:57:16.000Z,70.48
2022-08-12T03:58:16.000Z,70.89
2022-08-12T03:59:16.000Z,70.59
2022-08-12T04:00:16.000Z,70.89
2022-08-12T04:01:16.000Z,70.68
2022-08-12T04:02:16.000Z,70.38
2022-08-12T04:03:16.000Z,70.48
2022-08-12T04:04:16.000Z,70.28
2022-08-12T04:05:16.000Z,70.79
2022-08-12T04:06:16.000Z,70.68
2022-08-12T04:07:16.000Z,70.59
2022-08-12T04:07:16.000Z,70.59
2022-08-12T04:08:16.000Z,70.38
2022-08-12T04:08:16.000Z,70.38
2022-08-12T04:09:16.000Z,70.08
2022-08-12T04:09:16.000Z,70.08
2022-08-12T04:10:16.000Z,69.67
2022-08-12T04:10:16.000Z,69.67
2022-08-12T04:11:16.000Z,70.89
2022-08-12T04:11:16.000Z,70.89
2022-08-12T04:12:16.000Z,70.48
2022-08-12T04:13:16.000Z,70.28
2022-08-12T04:14:16.000Z,70.38
2022-08-12T04:15:16.000Z,70.38
2022-08-12T04:16:16.000Z,70.08
2022-08-12T04:17:16.000Z,69.98
2022-08-12T04:18:16.000Z,69.87
2022-08-12T04:19:16.000Z,70.28
2022-08-12T04:20:16.000Z,70.59
2022-08-12T04:21:16.000Z,70.68
2022-08-12T04:22:16.000Z,70.28
2022-08-12T04:23:16.000Z,69.98
2022-08-12T04:24:16.000Z,69.87
2022-08-12T04:25:16.000Z,69.98
2022-08-12T04:26:16.000Z,70.38
2022-08-12T04:27:16.000Z,70.08
2022-08-12T04:28:16.000Z,70.79
2022-08-12T04:29:16.000Z,71.40
2022-08-12T04:30:16.000Z,72.11
2022-08-12T04:31:16.000Z,72.62
2022-08-12T04:32:16.000Z,72.21
2022-08-12T04:33:16.000Z,71.97
2022-08-12T04:34:16.000Z,71.97
2022-08-12T04:35:16.000Z,71.67
2022-08-12T04:36:16.000Z,71.57
2022-08-12T04:37:16.000Z,71.36
2022-08-12T04:38:15.000Z,71.06
2022-08-12T04:39:15.000Z,71.67
2022-08-12T04:40:15.000Z,71.57
2022-08-12T04:41:15.000Z,72.38
2022-08-12T04:42:15.000Z,72.99
2022-08-12T04:43:15.000Z,72.48
2022-08-12T04:44:15.000Z,72.17
2022-08-12T04:45:15.000Z,72.48
2022-08-12T04:46:15.000Z,72.38
2022-08-12T04:47:15.000Z,72.17
2022-08-12T04:48:15.000Z,72.14
2022-08-12T04:49:15.000Z,71.73
2022-08-12T04:50:15.000Z,71.13
2022-08-12T04:51:15.000Z,71.73
2022-08-12T04:52:15.000Z,72.14
2022-08-12T04:53:15.000Z,72.04
2022-08-12T04:54:15.000Z,71.94
2022-08-12T04:55:15.000Z,72.34
2022-08-12T04:56:15.000Z,72.04
2022-08-12T04:57:15.000Z,71.53
2022-08-12T04:58:15.000Z,71.23
2022-08-12T04:59:15.000Z,71.03
2022-08-12T05:00:15.000Z,70.92
2022-08-12T05:01:15.000Z,71.64
2022-08-12T05:02:15.000Z,71.23
2022-08-12T05:03:15.000Z,70.52
2022-08-12T05:04:15.000Z,70.62
2022-08-12T05:05:15.000Z,70.59
2022-08-12T05:06:15.000Z,70.79
2022-08-12T05:07:15.000Z,69.98
2022-08-12T05:08:15.000Z,69.78
2022-08-12T05:09:15.000Z,70.08
2022-08-12T05:10:15.000Z,69.54
2022-08-12T05:11:15.000Z,69.84
2022-08-12T05:12:15.000Z,69.44
2022-08-12T05:12:15.000Z,69.44
2022-08-12T05:13:15.000Z,69.34
2022-08-12T05:13:15.000Z,69.34
2022-08-12T05:14:15.000Z,69.44
2022-08-12T05:14:15.000Z,69.44
2022-08-12T05:15:15.000Z,69.31
2022-08-12T05:15:15.000Z,69.31
2022-08-12T05:16:15.000Z,69.41
2022-08-12T05:16:15.000Z,69.41
2022-08-12T05:17:15.000Z,69.31
2022-08-12T05:18:15.000Z,69.31
2022-08-12T05:19:15.000Z,70.01
2022-08-12T05:20:15.000Z,69.37
2022-08-12T05:21:15.000Z,68.66
2022-08-12T05:22:15.000Z,68.46
2022-08-12T05:23:15.000Z,68.26
2022-08-12T05:24:15.000Z,68.26
2022-08-12T05:25:15.000Z,67.93
2022-08-12T05:26:15.000Z,67.52
2022-08-12T05:27:15.000Z,67.52
2022-08-12T05:28:15.000Z,67.93
2022-08-12T05:29:15.000Z,68.02
2022-08-12T05:30:15.000Z,68.23
2022-08-12T05:31:15.000Z,68.43
2022-08-12T05:32:15.000Z,67.72
2022-08-12T05:33:15.000Z,67.22
2022-08-12T05:34:15.000Z,67.62
2022-08-12T05:35:15.000Z,67.29
2022-08-12T05:36:15.000Z,66.67
2022-08-12T05:37:15.000Z,66.78
2022-08-12T05:37:15.000Z,66.78
2022-08-12T05:37:15.000Z,66.78
2022-08-12T05:38:15.000Z,66.88
2022-08-12T05:38:15.000Z,66.88
2022-08-12T05:38:15.000Z,66.88
2022-08-12T05:39:15.000Z,66.44
2022-08-12T05:39:15.000Z,66.44
2022-08-12T05:39:15.000Z,66.44
2022-08-12T05:40:15.000Z,66.44
2022-08-12T05:40:15.000Z,66.44
2022-08-12T05:40:15.000Z,66.44
2022-08-12T05:41:15.000Z,66.55
2022-08-12T05:41:15.000Z,66.55
2022-08-12T05:41:15.000Z,66.55
2022-08-12T05:42:15.000Z,66.24
2022-08-12T05:42:15.000Z,66.24
2022-08-12T05:43:15.000Z,66.72
2022-08-12T05:43:15.000Z,66.72
2022-08-12T05:44:15.000Z,66.41
2022-08-12T05:44:15.000Z,66.41
2022-08-12T05:45:15.000Z,65.70
2022-08-12T05:45:15.000Z,65.70
2022-08-12T05:46:15.000Z,65.40
2022-08-12T05:46:15.000Z,65.40
2022-08-12T05:47:15.000Z,65.67
2022-08-12T05:48:15.000Z,65.27
2022-08-12T05:49:14.000Z,65.27
2022-08-12T05:50:14.000Z,64.23
2022-08-12T05:51:14.000Z,63.90
2022-08-12T05:52:14.000Z,63.79
2022-08-12T05:53:14.000Z,63.06
2022-08-12T05:54:14.000Z,63.36
2022-08-12T05:55:14.000Z,63.16
2022-08-12T05:56:14.000Z,62.83
2022-08-12T05:57:14.000Z,62.43
2022-08-12T05:58:14.000Z,62.22
2022-08-12T05:59:14.000Z,62.70
2022-08-12T06:00:14.000Z,62.29
2022-08-12T06:01:14.000Z,61.99
2022-08-12T06:02:14.000Z,62.40
2022-08-12T06:02:14.000Z,62.40
2022-08-12T06:03:14.000Z,62.37
2022-08-12T06:03:14.000Z,62.37
2022-08-12T06:04:14.000Z,61.86
2022-08-12T06:04:14.000Z,61.86
2022-08-12T06:05:14.000Z,61.05
2022-08-12T06:05:14.000Z,61.05
2022-08-12T06:06:14.000Z,61.56
2022-08-12T06:06:14.000Z,61.56
2022-08-12T06:07:14.000Z,60.63
2022-08-12T06:08:14.000Z,60.63
2022-08-12T06:09:14.000Z,60.83
2022-08-12T06:10:14.000Z,61.13
2022-08-12T06:11:14.000Z,61.23
2022-08-12T06:12:14.000Z,61.00
2022-08-12T06:13:14.000Z,60.19
2022-08-12T06:14:14.000Z,59.48
2022-08-12T06:15:14.000Z,59.66
2022-08-12T06:16:14.000Z,59.46
2022-08-12T06:17:14.000Z,59.66
2022-08-12T06:18:14.000Z,59.33
2022-08-12T06:19:14.000Z,58.83
2022-08-12T06:20:14.000Z,58.62
2022-08-12T06:21:14.000Z,58.50
2022-08-12T06:22:14.000Z,57.90
2022-08-12T06:23:14.000Z,57.59
2022-08-12T06:24:14.000Z,57.37
2022-08-12T06:25:14.000Z,57.77
2022-08-12T06:26:14.000Z,57.87
2022-08-12T06:27:14.000Z,57.57
2022-08-12T06:27:14.000Z,57.57
2022-08-12T06:28:14.000Z,57.04
2022-08-12T06:28:14.000Z,57.04
2022-08-12T06:29:14.000Z,56.84
2022-08-12T06:29:14.000Z,56.84
2022-08-12T06:30:14.000Z,57.44
2022-08-12T06:30:14.000Z,57.44
2022-08-12T06:31:14.000Z,57.54
2022-08-12T06:31:14.000Z,57.54
2022-08-12T06:32:14.000Z,56.81
2022-08-12T06:33:14.000Z,56.30
2022-08-12T06:34:14.000Z,56.30
2022-08-12T06:35:14.000Z,56.28
2022-08-12T06:36:14.000Z,55.47
2022-08-12T06:37:14.000Z,54.97
2022-08-12T06:37:14.000Z,54.97
2022-08-12T06:38:14.000Z,54.85
2022-08-12T06:38:14.000Z,54.85
2022-08-12T06:39:14.000Z,54.93
2022-08-12T06:39:14.000Z,54.93
2022-08-12T06:40:14.000Z,54.93
2022-08-12T06:40:14.000Z,54.93
2022-08-12T06:41:14.000Z,54.52
2022-08-12T06:41:14.000Z,54.52
2022-08-12T06:42:14.000Z,54.93
2022-08-12T06:43:14.000Z,54.90
2022-08-12T06:44:14.000Z,54.70
2022-08-12T06:45:14.000Z,54.30
2022-08-12T06:46:14.000Z,54.07
2022-08-12T06:47:14.000Z,54.37
2022-08-12T06:48:14.000Z,53.07
2022-08-12T06:49:14.000Z,52.55
2022-08-12T06:50:14.000Z,52.64
2022-08-12T06:51:14.000Z,53.72
2022-08-12T06:52:14.000Z,51.92
2022-08-12T06:52:14.000Z,51.92
2022-08-12T06:53:14.000Z,52.32
2022-08-12T06:53:14.000Z,52.32
2022-08-12T06:54:14.000Z,51.50
2022-08-12T06:54:14.000Z,51.50
2022-08-12T06:55:14.000Z,50.89
2022-08-12T06:55:14.000Z,50.89
2022-08-12T06:56:14.000Z,51.09
2022-08-12T06:56:14.000Z,51.09
2022-08-12T06:57:14.000Z,50.79
2022-08-12T06:58:14.000Z,50.97
2022-08-12T06:59:14.000Z,50.77
2022-08-12T07:00:14.000Z,49.95
2022-08-12T07:01:14.000Z,50.35
2022-08-12T07:02:13.000Z,50.24
2022-08-12T07:03:13.000Z,49.65
2022-08-12T07:04:13.000Z,49.44
2022-08-12T07:05:13.000Z,49.82
2022-08-12T07:06:13.000Z,49.72
2022-08-12T07:07:13.000Z,50.52
2022-08-12T07:08:13.000Z,49.52
2022-08-12T07:09:13.000Z,49.72
2022-08-12T07:10:13.000Z,49.12
2022-08-12T07:11:13.000Z,48.93
2022-08-12T07:12:13.000Z,49.02
2022-08-12T07:13:13.000Z,49.02
2022-08-12T07:14:13.000Z,48.90
2022-08-12T07:15:13.000Z,48.70
2022-08-12T07:16:13.000Z,49.00
2022-08-12T07:17:13.000Z,49.00
2022-08-12T07:18:13.000Z,48.90
2022-08-12T07:19:13.000Z,49.30
2022-08-12T07:20:13.000Z,49.30
2022-08-12T07:21:13.000Z,49.20
2022-08-12T07:22:13.000Z,49.00
2022-08-12T07:23:13.000Z,49.27
2022-08-12T07:24:13.000Z,48.38
2022-08-12T07:25:13.000Z,48.28
2022-08-12T07:26:13.000Z,48.68
2022-08-12T07:27:13.000Z,49.38
2022-08-12T07:28:13.000Z,47.88
2022-08-12T07:29:13.000Z,47.78
2022-08-12T07:30:13.000Z,47.98
2022-08-12T07:31:13.000Z,48.38
2022-08-12T07:32:13.000Z,48.68
2022-08-12T07:33:13.000Z,47.86
2022-08-12T07:34:13.000Z,47.75
2022-08-12T07:35:13.000Z,47.36
2022-08-12T07:36:13.000Z,47.26
2022-08-12T07:37:13.000Z,46.76
2022-08-12T07:38:13.000Z,47.14
2022-08-12T07:39:13.000Z,46.24
2022-08-12T07:40:13.000Z,46.42
2022-08-12T07:41:13.000Z,45.57
2022-08-12T07:42:13.000Z,43.96
2022-08-12T07:43:13.000Z,43.13
2022-08-12T07:44:13.000Z,42.51
2022-08-12T07:45:13.000Z,42.27
2022-08-12T07:46:13.000Z,41.55
2022-08-12T07:47:13.000Z,40.94
2022-08-12T07:48:13.000Z,40.82
2022-08-12T07:49:13.000Z,40.80
2022-08-12T07:50:13.000Z,40.09
2022-08-12T07:51:13.000Z,40.68
2022-08-12T07:52:13.000Z,40.17
2022-08-12T07:53:13.000Z,39.56
2022-08-12T07:54:13.000Z,39.26
2022-08-12T07:55:13.000Z,39.43
2022-08-12T07:56:13.000Z,38.55
2022-08-12T07:57:13.000Z,38.55
2022-08-12T07:57:13.000Z,38.55
2022-08-12T07:58:13.000Z,38.33
2022-08-12T07:58:13.000Z,38.33
2022-08-12T07:59:13.000Z,38.63
2022-08-12T07:59:13.000Z,38.63
2022-08-12T08:00:13.000Z,38.41
2022-08-12T08:00:13.000Z,38.41
2022-08-12T08:01:13.000Z,37.90
2022-08-12T08:01:13.000Z,37.90
2022-08-12T08:02:13.000Z,37.29
2022-08-12T08:03:13.000Z,37.59
2022-08-12T08:04:13.000Z,37.49
2022-08-12T08:05:13.000Z,36.88
2022-08-12T08:06:13.000Z,36.38
2022-08-12T08:07:13.000Z,36.17
2022-08-12T08:08:13.000Z,36.07
2022-08-12T08:09:13.000Z,35.48
2022-08-12T08:10:13.000Z,35.88
2022-08-12T08:11:13.000Z,35.97
2022-08-12T08:12:13.000Z,36.36
2022-08-12T08:13:13.000Z,35.48
2022-08-12T08:14:12.000Z,35.28
2022-08-12T08:15:12.000Z,34.38
2022-08-12T08:16:12.000Z,34.89
2022-08-12T08:17:12.000Z,34.59
2022-08-12T08:17:12.000Z,34.59
2022-08-12T08:18:12.000Z,34.67
2022-08-12T08:18:12.000Z,34.67
2022-08-12T08:19:12.000Z,33.79
2022-08-12T08:19:12.000Z,33.79
2022-08-12T08:20:12.000Z,33.89
2022-08-12T08:20:12.000Z,33.89
2022-08-12T08:21:12.000Z,33.80
2022-08-12T08:21:12.000Z,33.80
2022-08-12T08:22:12.000Z,34.20
2022-08-12T08:23:12.000Z,33.89
2022-08-12T08:24:12.000Z,33.51
2022-08-12T08:25:12.000Z,33.70
2022-08-12T08:26:12.000Z,33.80
2022-08-12T08:27:12.000Z,33.70
2022-08-12T08:28:12.000Z,33.70
2022-08-12T08:29:12.000Z,33.29
2022-08-12T08:30:12.000Z,33.00
2022-08-12T08:31:12.000Z,33.49
2022-08-12T08:32:12.000Z,33.98
2022-08-12T08:33:12.000Z,33.87
2022-08-12T08:34:12.000Z,33.28
2022-08-12T08:35:12.000Z,33.48
2022-08-12T08:36:12.000Z,34.06
2022-08-12T08:37:12.000Z,32.79
2022-08-12T08:38:12.000Z,33.48
2022-08-12T08:39:12.000Z,33.95
2022-08-12T08:40:12.000Z,31.79
2022-08-12T08:41:12.000Z,31.49
2022-08-12T08:42:12.000Z,31.88
2022-08-12T08:43:12.000Z,31.98
2022-08-12T08:44:12.000Z,31.39
2022-08-12T08:45:12.000Z,31.69
2022-08-12T08:46:12.000Z,31.88
2022-08-12T08:47:12.000Z,31.69
2022-08-12T08:47:12.000Z,31.69
2022-08-12T08:47:12.000Z,31.69
2022-08-12T08:48:12.000Z,31.60
2022-08-12T08:48:12.000Z,31.60
2022-08-12T08:48:12.000Z,31.60
2022-08-12T08:49:12.000Z,31.92
2022-08-12T08:49:12.000Z,31.92
2022-08-12T08:49:12.000Z,31.92
2022-08-12T08:50:12.000Z,32.01
2022-08-12T08:50:12.000Z,32.01
2022-08-12T08:50:12.000Z,32.01
2022-08-12T08:51:12.000Z,32.29
2022-08-12T08:51:12.000Z,32.29
2022-08-12T08:51:12.000Z,32.29
2022-08-12T08:52:12.000Z,32.49
2022-08-12T08:52:12.000Z,32.49
2022-08-12T08:53:12.000Z,32.31
2022-08-12T08:53:12.000Z,32.31
2022-08-12T08:54:12.000Z,32.82
2022-08-12T08:54:12.000Z,32.82
2022-08-12T08:55:12.000Z,33.51
2022-08-12T08:55:12.000Z,33.51
2022-08-12T08:56:12.000Z,33.20
2022-08-12T08:56:12.000Z,33.20
2022-08-12T08:57:12.000Z,33.00
2022-08-12T08:58:12.000Z,32.59
2022-08-12T08:59:12.000Z,32.29
2022-08-12T09:00:12.000Z,32.80
2022-08-12T09:01:12.000Z,32.69
2022-08-12T09:02:12.000Z,32.79
2022-08-12T09:02:12.000Z,32.79
2022-08-12T09:03:12.000Z,33.20
2022-08-12T09:03:12.000Z,33.20
2022-08-12T09:04:12.000Z,33.39
2022-08-12T09:04:12.000Z,33.39
2022-08-12T09:05:12.000Z,33.10
2022-08-12T09:05:12.000Z,33.10
2022-08-12T09:06:12.000Z,32.89
2022-08-12T09:06:12.000Z,32.89
2022-08-12T09:07:12.000Z,32.60
2022-08-12T09:08:12.000Z,32.79
2022-08-12T09:09:12.000Z,32.69
2022-08-12T09:10:12.000Z,32.60
2022-08-12T09:11:12.000Z,33.00
2022-08-12T09:12:12.000Z,33.00
2022-08-12T09:13:12.000Z,33.79
2022-08-12T09:14:12.000Z,33.29
2022-08-12T09:15:12.000Z,33.59
2022-08-12T09:16:12.000Z,33.49
2022-08-12T09:17:12.000Z,33.49
2022-08-12T09:18:12.000Z,33.49
2022-08-12T09:19:12.000Z,33.67
2022-08-12T09:20:12.000Z,34.06
2022-08-12T09:21:12.000Z,34.28
2022-08-12T09:22:12.000Z,34.18
2022-08-12T09:23:12.000Z,34.97
2022-08-12T09:24:12.000Z,34.46
2022-08-12T09:25:12.000Z,34.27
2022-08-12T09:26:12.000Z,34.86
2022-08-12T09:27:12.000Z,34.66
2022-08-12T09:27:12.000Z,34.66
2022-08-12T09:28:11.000Z,34.17
2022-08-12T09:28:11.000Z,34.17
2022-08-12T09:29:11.000Z,34.66
2022-08-12T09:29:11.000Z,34.66
2022-08-12T09:30:11.000Z,34.17
2022-08-12T09:30:11.000Z,34.17
2022-08-12T09:31:11.000Z,34.75
2022-08-12T09:31:11.000Z,34.75
2022-08-12T09:32:11.000Z,34.75
2022-08-12T09:33:11.000Z,34.97
2022-08-12T09:34:11.000Z,34.97
2022-08-12T09:35:11.000Z,35.17
2022-08-12T09:36:11.000Z,35.15
2022-08-12T09:37:11.000Z,35.05
2022-08-12T09:37:11.000Z,35.05
2022-08-12T09:37:11.000Z,35.05
2022-08-12T09:38:11.000Z,35.54
2022-08-12T09:38:11.000Z,35.54
2022-08-12T09:38:11.000Z,35.54
2022-08-12T09:39:11.000Z,35.94
2022-08-12T09:39:11.000Z,35.94
2022-08-12T09:39:11.000Z,35.94
2022-08-12T09:40:11.000Z,34.75
2022-08-12T09:40:11.000Z,34.75
2022-08-12T09:40:11.000Z,34.75
2022-08-12T09:41:11.000Z,35.23
2022-08-12T09:41:11.000Z,35.23
2022-08-12T09:41:11.000Z,35.23
2022-08-12T09:42:11.000Z,35.71
2022-08-12T09:42:11.000Z,35.71
2022-08-12T09:43:11.000Z,34.23
2022-08-12T09:43:11.000Z,34.23
2022-08-12T09:44:11.000Z,33.82
2022-08-12T09:44:11.000Z,33.82
2022-08-12T09:45:11.000Z,33.33
2022-08-12T09:45:11.000Z,33.33
2022-08-12T09:46:11.000Z,33.84
2022-08-12T09:46:11.000Z,33.84
2022-08-12T09:47:11.000Z,33.94
2022-08-12T09:48:11.000Z,34.84
2022-08-12T09:49:11.000Z,35.35
2022-08-12T09:50:11.000Z,35.05
2022-08-12T09:51:11.000Z,35.13
2022-08-12T09:53:28.000Z,34.15
2022-08-12T09:53:28.000Z,34.15
2022-08-12T09:53:28.000Z,34.15
2022-08-12T09:53:28.000Z,34.15
2022-08-12T09:53:28.000Z,34.15
2022-08-12T09:53:28.000Z,34.15
2022-08-12T09:54:28.000Z,34.05
2022-08-12T09:54:28.000Z,34.05
2022-08-12T09:54:28.000Z,34.05
2022-08-12T09:55:28.000Z,33.84
2022-08-12T09:55:28.000Z,33.84
2022-08-12T09:55:28.000Z,33.84
2022-08-12T09:56:28.000Z,33.65
2022-08-12T09:56:28.000Z,33.65
2022-08-12T09:56:28.000Z,33.65
2022-08-12T09:57:28.000Z,33.36
2022-08-12T09:57:28.000Z,33.36
2022-08-12T09:58:28.000Z,33.67
2022-08-12T09:58:28.000Z,33.67
2022-08-12T09:59:28.000Z,34.28
2022-08-12T09:59:28.000Z,34.28
2022-08-12T10:00:28.000Z,34.56
2022-08-12T10:00:28.000Z,34.56
2022-08-12T10:01:28.000Z,33.87
2022-08-12T10:01:28.000Z,33.87
2022-08-12T10:02:28.000Z,33.86